หน้าหลัก
METAR-TAF:

METAR-TAF

ท่าอากาศยาน :

ซิดนีย์, ออสเตรเลีย

ท่าอากาศยานนานาชาติคิงส์ฟอร์ดสมิธ

ละติจูด: 33-57S, ลองจิจูด: 151-11E, ความสูง: 6 ม.

การสังเกตสภาพอากาศปัจจุบัน

รายงานได้ทำขึ้นเมื่อ 38 นาทีที่แล้ว ณ เวลา 15:00 UTC
ลม 5 นอตจากตะวันตก
อุณหภูมิ 11°C
ความชื้น 76%
ความกดอากาศ 1017 hPa
ทัศนวิสัย 10 กม. หรือมากกว่า
ไม่มีเมฆต่ำกว่า 1,500 ม. และไม่มีเมฆคิวมูโลนิมบัส

METAR: YSSY 211500Z 27005KT CAVOK 11/07 Q1017 NOSIG

เวลา: 01:38 (15:38 UTC)

การพยากรณ์

รายงานได้ทำขึ้นเมื่อ 4 ชั่วโมงและ 38 นาทีที่แล้ว ณ เวลา 11:00 UTC
การพยากรณ์มีผลตั้งแต่วันที่ 21 ณ เวลา 12 UTC จนถึงวันที่ 22 ณ เวลา 18 UTC
ลม 8 นอตจากตะวันตก/ตะวันตกเฉียงเหนือ
ทัศนวิสัย 10 กม. หรือมากกว่า
ไม่มีเมฆต่ำกว่า 1,500 ม. และไม่มีเมฆคิวมูโลนิมบัส
จาก 22 ณ เวลา 0200 UTC
ลม 8 นอตจากตะวันออกเฉียงใต้
ทัศนวิสัย 10 กม. หรือมากกว่า
ไม่มีเมฆต่ำกว่า 1,500 ม. และไม่มีเมฆคิวมูโลนิมบัส
จาก 22 ณ เวลา 1100 UTC
ลม 8 นอตจากตะวันตก/ตะวันตกเฉียงเหนือ
ทัศนวิสัย 10 กม. หรือมากกว่า
ไม่มีเมฆต่ำกว่า 1,500 ม. และไม่มีเมฆคิวมูโลนิมบัส

TAF: YSSY 211100Z 2112/2218 29008KT CAVOK FM220200 13008KT CAVOK FM221100 29008KT CAVOK

สังเกตการณ์สภาพอากาศและพยากรณ์อากาศของสนามบินมากกว่า 4000 แห่ง (รายงาน METAR และ TAF).

สถานีที่ดูได้จะแสดงไว้ด้วยจุดสีเหลืองและสีแดงบนแผนที่.

เลื่อนเมาส์ไปเหนือจุดเพื่อดูชื่อสถานี.

แล้วคลิกเพื่อดูสังเกตการณ์และการพยากรณ์สภาพอากาศ.

ในการเปลี่ยนแผนที่: คลิกที่ปุ่มสีเขียวที่มีกากบาทสีดำเพื่อซูมเข้า; ที่ปุ่มสีเขียวที่มีขีดเพื่อซูมออก; หรือที่ลูกศรสีเขียวเพื่อไปยังแผนที่ที่อยู่ติดกัน.


METAR-TAF: